sensor_id;sensor_type;location;lat;lon;timestamp;temperature;humidity
37050;DHT22;22958;51.232;6.826;2022-09-28T00:02:01;9.00;99.90
37050;DHT22;22958;51.232;6.826;2022-09-28T00:04:27;9.00;99.90
37050;DHT22;22958;51.232;6.826;2022-09-28T00:06:52;9.00;99.90
37050;DHT22;22958;51.232;6.826;2022-09-28T00:09:17;9.00;99.90
37050;DHT22;22958;51.232;6.826;2022-09-28T00:11:43;9.00;99.90
37050;DHT22;22958;51.232;6.826;2022-09-28T00:14:10;8.90;99.90
37050;DHT22;22958;51.232;6.826;2022-09-28T00:16:40;9.00;99.90
37050;DHT22;22958;51.232;6.826;2022-09-28T00:19:06;8.90;99.90
37050;DHT22;22958;51.232;6.826;2022-09-28T00:21:33;9.00;99.90
37050;DHT22;22958;51.232;6.826;2022-09-28T00:24:00;9.00;99.90
37050;DHT22;22958;51.232;6.826;2022-09-28T00:26:40;9.00;99.90
37050;DHT22;22958;51.232;6.826;2022-09-28T00:29:07;8.90;99.90
37050;DHT22;22958;51.232;6.826;2022-09-28T00:31:33;9.00;99.90
37050;DHT22;22958;51.232;6.826;2022-09-28T00:33:59;9.00;99.90
37050;DHT22;22958;51.232;6.826;2022-09-28T00:36:25;8.90;99.90
37050;DHT22;22958;51.232;6.826;2022-09-28T00:38:52;8.90;99.90
37050;DHT22;22958;51.232;6.826;2022-09-28T00:41:18;8.90;99.90
37050;DHT22;22958;51.232;6.826;2022-09-28T00:43:43;8.90;99.90
37050;DHT22;22958;51.232;6.826;2022-09-28T00:46:11;8.90;99.90
37050;DHT22;22958;51.232;6.826;2022-09-28T00:48:38;8.90;99.90
37050;DHT22;22958;51.232;6.826;2022-09-28T00:51:05;8.90;99.90
37050;DHT22;22958;51.232;6.826;2022-09-28T00:53:32;8.90;99.90
37050;DHT22;22958;51.232;6.826;2022-09-28T00:56:06;8.90;99.90
37050;DHT22;22958;51.232;6.826;2022-09-28T00:58:43;8.80;99.90
37050;DHT22;22958;51.232;6.826;2022-09-28T01:01:09;8.80;99.90
37050;DHT22;22958;51.232;6.826;2022-09-28T01:03:36;8.80;99.90
37050;DHT22;22958;51.232;6.826;2022-09-28T01:06:02;8.80;99.90
37050;DHT22;22958;51.232;6.826;2022-09-28T01:08:29;8.90;99.90
37050;DHT22;22958;51.232;6.826;2022-09-28T01:10:58;8.80;99.90
37050;DHT22;22958;51.232;6.826;2022-09-28T01:13:24;8.70;99.90
37050;DHT22;22958;51.232;6.826;2022-09-28T01:16:33;8.70;99.90
37050;DHT22;22958;51.232;6.826;2022-09-28T01:18:51;8.70;99.90
37050;DHT22;22958;51.232;6.826;2022-09-28T01:21:21;8.70;99.90
37050;DHT22;22958;51.232;6.826;2022-09-28T01:26:37;8.70;99.90
37050;DHT22;22958;51.232;6.826;2022-09-28T01:29:16;8.70;99.90
37050;DHT22;22958;51.232;6.826;2022-09-28T01:31:45;8.60;99.90
37050;DHT22;22958;51.232;6.826;2022-09-28T01:34:13;8.70;99.90
37050;DHT22;22958;51.232;6.826;2022-09-28T01:36:45;8.70;99.90
37050;DHT22;22958;51.232;6.826;2022-09-28T01:39:13;8.70;99.90
37050;DHT22;22958;51.232;6.826;2022-09-28T01:41:39;8.70;99.90
37050;DHT22;22958;51.232;6.826;2022-09-28T01:44:07;8.70;99.90
37050;DHT22;22958;51.232;6.826;2022-09-28T01:46:39;8.70;99.90
37050;DHT22;22958;51.232;6.826;2022-09-28T01:49:10;8.70;99.90
37050;DHT22;22958;51.232;6.826;2022-09-28T01:51:42;8.70;99.90
37050;DHT22;22958;51.232;6.826;2022-09-28T01:54:14;8.70;99.90
37050;DHT22;22958;51.232;6.826;2022-09-28T01:56:43;8.60;99.90
37050;DHT22;22958;51.232;6.826;2022-09-28T01:59:17;8.60;99.90
37050;DHT22;22958;51.232;6.826;2022-09-28T02:01:47;8.60;99.90
37050;DHT22;22958;51.232;6.826;2022-09-28T02:04:15;8.60;99.90
37050;DHT22;22958;51.232;6.826;2022-09-28T02:06:45;8.60;99.90
37050;DHT22;22958;51.232;6.826;2022-09-28T02:09:14;8.70;99.90
37050;DHT22;22958;51.232;6.826;2022-09-28T02:11:42;8.70;99.90
37050;DHT22;22958;51.232;6.826;2022-09-28T02:14:09;8.70;99.90
37050;DHT22;22958;51.232;6.826;2022-09-28T02:19:02;8.80;99.90
37050;DHT22;22958;51.232;6.826;2022-09-28T02:23:57;8.80;99.90
37050;DHT22;22958;51.232;6.826;2022-09-28T02:26:27;8.80;99.90
37050;DHT22;22958;51.232;6.826;2022-09-28T02:28:53;8.80;99.90
37050;DHT22;22958;51.232;6.826;2022-09-28T02:31:19;8.80;99.90
37050;DHT22;22958;51.232;6.826;2022-09-28T02:33:44;8.80;99.90
37050;DHT22;22958;51.232;6.826;2022-09-28T02:36:10;8.80;99.90
37050;DHT22;22958;51.232;6.826;2022-09-28T02:38:36;8.80;99.90
37050;DHT22;22958;51.232;6.826;2022-09-28T02:41:10;8.80;99.90
37050;DHT22;22958;51.232;6.826;2022-09-28T02:48:55;8.90;99.90
37050;DHT22;22958;51.232;6.826;2022-09-28T02:51:26;8.90;99.90
37050;DHT22;22958;51.232;6.826;2022-09-28T02:54:31;8.90;99.90
37050;DHT22;22958;51.232;6.826;2022-09-28T02:59:44;8.90;99.90
37050;DHT22;22958;51.232;6.826;2022-09-28T03:02:19;8.80;99.90
37050;DHT22;22958;51.232;6.826;2022-09-28T03:04:48;8.80;99.90
37050;DHT22;22958;51.232;6.826;2022-09-28T03:07:20;8.70;99.90
37050;DHT22;22958;51.232;6.826;2022-09-28T03:09:53;8.70;99.90
37050;DHT22;22958;51.232;6.826;2022-09-28T03:12:20;8.80;99.90
37050;DHT22;22958;51.232;6.826;2022-09-28T03:14:50;8.80;99.90
37050;DHT22;22958;51.232;6.826;2022-09-28T03:17:29;8.70;99.90
37050;DHT22;22958;51.232;6.826;2022-09-28T03:19:54;8.70;99.90
37050;DHT22;22958;51.232;6.826;2022-09-28T03:22:20;8.70;99.90
37050;DHT22;22958;51.232;6.826;2022-09-28T03:24:45;8.80;99.90
37050;DHT22;22958;51.232;6.826;2022-09-28T03:27:10;8.70;99.90
37050;DHT22;22958;51.232;6.826;2022-09-28T03:29:36;8.70;99.90
37050;DHT22;22958;51.232;6.826;2022-09-28T03:32:02;8.70;99.90
37050;DHT22;22958;51.232;6.826;2022-09-28T03:34:28;8.70;99.90
37050;DHT22;22958;51.232;6.826;2022-09-28T03:36:53;8.70;99.90
37050;DHT22;22958;51.232;6.826;2022-09-28T03:39:18;8.80;99.90
37050;DHT22;22958;51.232;6.826;2022-09-28T03:41:44;8.70;99.90
37050;DHT22;22958;51.232;6.826;2022-09-28T03:44:09;8.70;99.90
37050;DHT22;22958;51.232;6.826;2022-09-28T03:46:35;8.70;99.90
37050;DHT22;22958;51.232;6.826;2022-09-28T03:49:00;8.70;99.90
37050;DHT22;22958;51.232;6.826;2022-09-28T03:51:26;8.70;99.90
37050;DHT22;22958;51.232;6.826;2022-09-28T03:53:51;8.70;99.90
37050;DHT22;22958;51.232;6.826;2022-09-28T03:56:17;8.70;99.90
37050;DHT22;22958;51.232;6.826;2022-09-28T03:58:42;8.70;99.90
37050;DHT22;22958;51.232;6.826;2022-09-28T04:01:09;8.70;99.90
37050;DHT22;22958;51.232;6.826;2022-09-28T04:03:36;8.80;99.90
37050;DHT22;22958;51.232;6.826;2022-09-28T04:06:02;8.80;99.90
37050;DHT22;22958;51.232;6.826;2022-09-28T04:08:27;8.80;99.90
37050;DHT22;22958;51.232;6.826;2022-09-28T04:10:56;8.80;99.90
37050;DHT22;22958;51.232;6.826;2022-09-28T04:13:22;8.80;99.90
37050;DHT22;22958;51.232;6.826;2022-09-28T04:15:51;8.70;99.90
37050;DHT22;22958;51.232;6.826;2022-09-28T04:18:16;8.70;99.90
37050;DHT22;22958;51.232;6.826;2022-09-28T04:20:42;8.70;99.90
37050;DHT22;22958;51.232;6.826;2022-09-28T04:23:10;8.70;99.90
37050;DHT22;22958;51.232;6.826;2022-09-28T04:25:35;8.80;99.90
37050;DHT22;22958;51.232;6.826;2022-09-28T04:28:01;8.80;99.90
37050;DHT22;22958;51.232;6.826;2022-09-28T04:30:46;8.80;99.90
37050;DHT22;22958;51.232;6.826;2022-09-28T04:33:11;8.80;99.90
37050;DHT22;22958;51.232;6.826;2022-09-28T04:35:37;8.80;99.90
37050;DHT22;22958;51.232;6.826;2022-09-28T04:38:02;8.70;99.90
37050;DHT22;22958;51.232;6.826;2022-09-28T04:40:28;8.80;99.90
37050;DHT22;22958;51.232;6.826;2022-09-28T04:42:53;8.80;99.90
37050;DHT22;22958;51.232;6.826;2022-09-28T04:45:19;8.80;99.90
37050;DHT22;22958;51.232;6.826;2022-09-28T04:47:45;8.80;99.90
37050;DHT22;22958;51.232;6.826;2022-09-28T04:50:10;8.80;99.90
37050;DHT22;22958;51.232;6.826;2022-09-28T04:52:36;8.80;99.90
37050;DHT22;22958;51.232;6.826;2022-09-28T04:55:02;8.80;99.90
37050;DHT22;22958;51.232;6.826;2022-09-28T04:57:27;8.90;99.90
37050;DHT22;22958;51.232;6.826;2022-09-28T04:59:53;8.90;99.90
37050;DHT22;22958;51.232;6.826;2022-09-28T05:02:18;9.00;99.90
37050;DHT22;22958;51.232;6.826;2022-09-28T05:04:44;8.90;99.90
37050;DHT22;22958;51.232;6.826;2022-09-28T05:07:10;8.90;99.90
37050;DHT22;22958;51.232;6.826;2022-09-28T05:09:35;8.90;99.90
37050;DHT22;22958;51.232;6.826;2022-09-28T05:12:00;9.00;99.90
37050;DHT22;22958;51.232;6.826;2022-09-28T05:14:26;9.00;99.90
37050;DHT22;22958;51.232;6.826;2022-09-28T05:16:51;8.90;99.90
37050;DHT22;22958;51.232;6.826;2022-09-28T05:19:17;8.90;99.90
37050;DHT22;22958;51.232;6.826;2022-09-28T05:21:43;9.00;99.90
37050;DHT22;22958;51.232;6.826;2022-09-28T05:24:09;8.90;99.90
37050;DHT22;22958;51.232;6.826;2022-09-28T05:26:34;9.00;99.90
37050;DHT22;22958;51.232;6.826;2022-09-28T05:29:00;9.00;99.90
37050;DHT22;22958;51.232;6.826;2022-09-28T05:31:25;9.00;99.90
37050;DHT22;22958;51.232;6.826;2022-09-28T05:33:54;9.00;99.90
37050;DHT22;22958;51.232;6.826;2022-09-28T05:36:19;9.00;99.90
37050;DHT22;22958;51.232;6.826;2022-09-28T05:38:45;9.00;99.90
37050;DHT22;22958;51.232;6.826;2022-09-28T05:41:10;9.00;99.90
37050;DHT22;22958;51.232;6.826;2022-09-28T05:43:36;9.00;99.90
37050;DHT22;22958;51.232;6.826;2022-09-28T05:46:03;8.90;99.90
37050;DHT22;22958;51.232;6.826;2022-09-28T05:48:28;8.90;99.90
37050;DHT22;22958;51.232;6.826;2022-09-28T05:50:54;8.90;99.90
37050;DHT22;22958;51.232;6.826;2022-09-28T05:53:19;9.00;99.90
37050;DHT22;22958;51.232;6.826;2022-09-28T05:55:45;9.00;99.90
37050;DHT22;22958;51.232;6.826;2022-09-28T05:58:10;9.00;99.90
37050;DHT22;22958;51.232;6.826;2022-09-28T06:00:36;9.00;99.90
37050;DHT22;22958;51.232;6.826;2022-09-28T06:03:03;9.00;99.90
37050;DHT22;22958;51.232;6.826;2022-09-28T06:05:28;9.00;99.90
37050;DHT22;22958;51.232;6.826;2022-09-28T06:07:55;9.00;99.90
37050;DHT22;22958;51.232;6.826;2022-09-28T06:10:22;9.00;99.90
37050;DHT22;22958;51.232;6.826;2022-09-28T06:12:50;9.00;99.90
37050;DHT22;22958;51.232;6.826;2022-09-28T06:15:16;9.00;99.90
37050;DHT22;22958;51.232;6.826;2022-09-28T06:17:42;9.00;99.90
37050;DHT22;22958;51.232;6.826;2022-09-28T06:20:08;9.10;99.90
37050;DHT22;22958;51.232;6.826;2022-09-28T06:22:34;9.10;99.90
37050;DHT22;22958;51.232;6.826;2022-09-28T06:24:59;9.10;99.90
37050;DHT22;22958;51.232;6.826;2022-09-28T06:27:25;9.10;99.90
37050;DHT22;22958;51.232;6.826;2022-09-28T06:29:50;9.00;99.90
37050;DHT22;22958;51.232;6.826;2022-09-28T06:32:17;9.00;99.90
37050;DHT22;22958;51.232;6.826;2022-09-28T06:34:42;9.00;99.90
37050;DHT22;22958;51.232;6.826;2022-09-28T06:37:07;9.00;99.90
37050;DHT22;22958;51.232;6.826;2022-09-28T06:39:33;9.00;99.90
37050;DHT22;22958;51.232;6.826;2022-09-28T06:41:58;9.00;99.90
37050;DHT22;22958;51.232;6.826;2022-09-28T06:44:27;9.10;99.90
37050;DHT22;22958;51.232;6.826;2022-09-28T06:46:53;9.10;99.90
37050;DHT22;22958;51.232;6.826;2022-09-28T06:49:20;9.10;99.90
37050;DHT22;22958;51.232;6.826;2022-09-28T06:51:46;9.10;99.90
37050;DHT22;22958;51.232;6.826;2022-09-28T06:54:12;9.10;99.90
37050;DHT22;22958;51.232;6.826;2022-09-28T06:56:37;9.10;99.90
37050;DHT22;22958;51.232;6.826;2022-09-28T06:59:03;9.10;99.90
37050;DHT22;22958;51.232;6.826;2022-09-28T07:01:28;9.20;99.90
37050;DHT22;22958;51.232;6.826;2022-09-28T07:03:54;9.30;99.90
37050;DHT22;22958;51.232;6.826;2022-09-28T07:06:19;9.30;99.90
37050;DHT22;22958;51.232;6.826;2022-09-28T07:08:48;9.30;99.90
37050;DHT22;22958;51.232;6.826;2022-09-28T07:11:14;9.20;99.90
37050;DHT22;22958;51.232;6.826;2022-09-28T07:13:39;9.20;99.90
37050;DHT22;22958;51.232;6.826;2022-09-28T07:16:04;9.30;99.90
37050;DHT22;22958;51.232;6.826;2022-09-28T07:18:30;9.30;99.90
37050;DHT22;22958;51.232;6.826;2022-09-28T07:20:56;9.50;99.90
37050;DHT22;22958;51.232;6.826;2022-09-28T07:23:21;9.60;99.90
37050;DHT22;22958;51.232;6.826;2022-09-28T07:25:47;9.60;99.90
37050;DHT22;22958;51.232;6.826;2022-09-28T07:28:15;9.60;99.90
37050;DHT22;22958;51.232;6.826;2022-09-28T07:30:41;9.60;99.90
37050;DHT22;22958;51.232;6.826;2022-09-28T07:33:09;9.50;99.90
37050;DHT22;22958;51.232;6.826;2022-09-28T07:35:36;9.60;99.90
37050;DHT22;22958;51.232;6.826;2022-09-28T07:38:03;9.70;99.90
37050;DHT22;22958;51.232;6.826;2022-09-28T07:40:29;9.70;99.90
37050;DHT22;22958;51.232;6.826;2022-09-28T07:43:13;9.60;99.90
37050;DHT22;22958;51.232;6.826;2022-09-28T07:45:39;9.70;99.90
37050;DHT22;22958;51.232;6.826;2022-09-28T07:48:07;9.80;99.90
37050;DHT22;22958;51.232;6.826;2022-09-28T07:50:32;9.90;99.90
37050;DHT22;22958;51.232;6.826;2022-09-28T07:52:58;9.90;99.90
37050;DHT22;22958;51.232;6.826;2022-09-28T07:55:24;10.00;99.90
37050;DHT22;22958;51.232;6.826;2022-09-28T07:57:57;10.10;99.90
37050;DHT22;22958;51.232;6.826;2022-09-28T08:00:25;10.20;99.90
37050;DHT22;22958;51.232;6.826;2022-09-28T08:02:51;10.40;99.90
37050;DHT22;22958;51.232;6.826;2022-09-28T08:05:17;10.60;99.90
37050;DHT22;22958;51.232;6.826;2022-09-28T08:07:42;10.60;99.90
37050;DHT22;22958;51.232;6.826;2022-09-28T08:10:08;10.40;99.90
37050;DHT22;22958;51.232;6.826;2022-09-28T08:12:33;10.50;99.90
37050;DHT22;22958;51.232;6.826;2022-09-28T08:15:00;10.60;99.90
37050;DHT22;22958;51.232;6.826;2022-09-28T08:17:25;10.70;99.90
37050;DHT22;22958;51.232;6.826;2022-09-28T08:19:51;10.60;99.90
37050;DHT22;22958;51.232;6.826;2022-09-28T08:22:35;10.80;99.90
37050;DHT22;22958;51.232;6.826;2022-09-28T08:25:01;10.70;99.90
37050;DHT22;22958;51.232;6.826;2022-09-28T08:27:26;10.60;99.90
37050;DHT22;22958;51.232;6.826;2022-09-28T08:29:52;10.70;99.90
37050;DHT22;22958;51.232;6.826;2022-09-28T08:32:17;10.70;99.90
37050;DHT22;22958;51.232;6.826;2022-09-28T08:34:43;10.80;99.90
37050;DHT22;22958;51.232;6.826;2022-09-28T08:37:09;10.70;99.90
37050;DHT22;22958;51.232;6.826;2022-09-28T08:39:34;10.70;99.90
37050;DHT22;22958;51.232;6.826;2022-09-28T08:42:16;10.40;99.90
37050;DHT22;22958;51.232;6.826;2022-09-28T08:44:46;10.20;99.90
37050;DHT22;22958;51.232;6.826;2022-09-28T08:47:17;10.20;99.90
37050;DHT22;22958;51.232;6.826;2022-09-28T08:50:15;10.20;99.90
37050;DHT22;22958;51.232;6.826;2022-09-28T08:52:41;10.50;99.90
37050;DHT22;22958;51.232;6.826;2022-09-28T08:55:10;10.60;99.90
37050;DHT22;22958;51.232;6.826;2022-09-28T08:57:49;10.50;99.90
37050;DHT22;22958;51.232;6.826;2022-09-28T09:00:33;10.50;99.90
37050;DHT22;22958;51.232;6.826;2022-09-28T09:03:01;10.40;99.90
37050;DHT22;22958;51.232;6.826;2022-09-28T09:05:36;10.60;99.90
37050;DHT22;22958;51.232;6.826;2022-09-28T09:15:54;10.70;99.90
37050;DHT22;22958;51.232;6.826;2022-09-28T09:21:01;10.60;99.90
37050;DHT22;22958;51.232;6.826;2022-09-28T09:23:35;10.50;99.90
37050;DHT22;22958;51.232;6.826;2022-09-28T09:26:12;10.80;99.90
37050;DHT22;22958;51.232;6.826;2022-09-28T09:28:43;11.10;99.90
37050;DHT22;22958;51.232;6.826;2022-09-28T09:31:23;11.30;99.90
37050;DHT22;22958;51.232;6.826;2022-09-28T09:36:21;11.30;99.90
37050;DHT22;22958;51.232;6.826;2022-09-28T09:39:32;11.40;99.90
37050;DHT22;22958;51.232;6.826;2022-09-28T09:41:57;11.70;99.90
37050;DHT22;22958;51.232;6.826;2022-09-28T09:47:20;11.20;99.90
37050;DHT22;22958;51.232;6.826;2022-09-28T09:49:49;11.20;99.90
37050;DHT22;22958;51.232;6.826;2022-09-28T09:57:39;11.20;99.90
37050;DHT22;22958;51.232;6.826;2022-09-28T10:00:10;11.30;99.90
37050;DHT22;22958;51.232;6.826;2022-09-28T10:02:37;11.50;99.90
37050;DHT22;22958;51.232;6.826;2022-09-28T10:07:42;11.30;99.90
37050;DHT22;22958;51.232;6.826;2022-09-28T10:10:11;11.20;99.90
37050;DHT22;22958;51.232;6.826;2022-09-28T10:12:38;11.30;99.90
37050;DHT22;22958;51.232;6.826;2022-09-28T10:15:04;11.40;99.90
37050;DHT22;22958;51.232;6.826;2022-09-28T10:17:30;11.40;99.90
37050;DHT22;22958;51.232;6.826;2022-09-28T10:19:56;11.50;99.90
37050;DHT22;22958;51.232;6.826;2022-09-28T10:22:22;11.50;99.90
37050;DHT22;22958;51.232;6.826;2022-09-28T10:24:49;11.60;99.90
37050;DHT22;22958;51.232;6.826;2022-09-28T10:27:16;11.70;99.90
37050;DHT22;22958;51.232;6.826;2022-09-28T10:30:28;12.00;99.90
37050;DHT22;22958;51.232;6.826;2022-09-28T10:32:41;12.10;99.90
37050;DHT22;22958;51.232;6.826;2022-09-28T10:35:11;12.20;99.90
37050;DHT22;22958;51.232;6.826;2022-09-28T10:37:45;12.50;99.90
37050;DHT22;22958;51.232;6.826;2022-09-28T10:40:28;12.70;99.90
37050;DHT22;22958;51.232;6.826;2022-09-28T10:43:02;12.80;99.90
37050;DHT22;22958;51.232;6.826;2022-09-28T10:45:30;12.80;99.90
37050;DHT22;22958;51.232;6.826;2022-09-28T10:47:58;12.70;99.90
37050;DHT22;22958;51.232;6.826;2022-09-28T10:50:25;12.70;99.90
37050;DHT22;22958;51.232;6.826;2022-09-28T10:52:51;12.70;99.90
37050;DHT22;22958;51.232;6.826;2022-09-28T10:57:46;13.00;99.90
37050;DHT22;22958;51.232;6.826;2022-09-28T11:00:32;13.10;99.90
37050;DHT22;22958;51.232;6.826;2022-09-28T11:02:58;12.80;99.90
37050;DHT22;22958;51.232;6.826;2022-09-28T11:05:24;12.80;99.90
37050;DHT22;22958;51.232;6.826;2022-09-28T11:07:51;12.40;99.90
37050;DHT22;22958;51.232;6.826;2022-09-28T11:10:23;12.50;99.90
37050;DHT22;22958;51.232;6.826;2022-09-28T11:12:50;12.80;99.90
37050;DHT22;22958;51.232;6.826;2022-09-28T11:15:20;13.20;99.90
37050;DHT22;22958;51.232;6.826;2022-09-28T11:17:46;13.40;99.90
37050;DHT22;22958;51.232;6.826;2022-09-28T11:22:43;13.50;99.90
37050;DHT22;22958;51.232;6.826;2022-09-28T11:25:11;13.30;99.90
37050;DHT22;22958;51.232;6.826;2022-09-28T11:27:37;13.30;99.90
37050;DHT22;22958;51.232;6.826;2022-09-28T11:30:03;12.80;99.90
37050;DHT22;22958;51.232;6.826;2022-09-28T11:32:29;12.70;99.90
37050;DHT22;22958;51.232;6.826;2022-09-28T11:34:56;12.70;99.90
37050;DHT22;22958;51.232;6.826;2022-09-28T11:37:34;12.90;99.90
37050;DHT22;22958;51.232;6.826;2022-09-28T11:40:10;13.10;99.90
37050;DHT22;22958;51.232;6.826;2022-09-28T11:42:42;13.10;99.90
37050;DHT22;22958;51.232;6.826;2022-09-28T11:45:17;13.20;99.90
37050;DHT22;22958;51.232;6.826;2022-09-28T11:48:00;13.40;99.90
37050;DHT22;22958;51.232;6.826;2022-09-28T11:50:27;13.30;99.90
37050;DHT22;22958;51.232;6.826;2022-09-28T11:55:25;13.10;99.90
37050;DHT22;22958;51.232;6.826;2022-09-28T11:57:55;13.00;99.90
37050;DHT22;22958;51.232;6.826;2022-09-28T12:00:25;13.00;99.90
37050;DHT22;22958;51.232;6.826;2022-09-28T12:05:19;12.90;99.90
37050;DHT22;22958;51.232;6.826;2022-09-28T12:07:46;13.00;99.90
37050;DHT22;22958;51.232;6.826;2022-09-28T12:10:23;13.50;99.90
37050;DHT22;22958;51.232;6.826;2022-09-28T12:12:57;14.70;99.90
37050;DHT22;22958;51.232;6.826;2022-09-28T12:15:25;17.70;99.90
37050;DHT22;22958;51.232;6.826;2022-09-28T12:17:56;21.70;99.90
37050;DHT22;22958;51.232;6.826;2022-09-28T12:20:23;23.60;99.90
37050;DHT22;22958;51.232;6.826;2022-09-28T12:22:57;22.50;99.30
37050;DHT22;22958;51.232;6.826;2022-09-28T12:25:25;19.60;99.90
37050;DHT22;22958;51.232;6.826;2022-09-28T12:27:52;17.10;99.90
37050;DHT22;22958;51.232;6.826;2022-09-28T12:30:20;16.00;99.90
37050;DHT22;22958;51.232;6.826;2022-09-28T12:32:58;15.90;99.90
37050;DHT22;22958;51.232;6.826;2022-09-28T12:41:02;14.90;99.90
37050;DHT22;22958;51.232;6.826;2022-09-28T12:54:04;13.90;99.90
37050;DHT22;22958;51.232;6.826;2022-09-28T12:56:40;13.90;99.90
37050;DHT22;22958;51.232;6.826;2022-09-28T13:04:19;13.80;99.90
37050;DHT22;22958;51.232;6.826;2022-09-28T13:09:19;13.70;99.90
37050;DHT22;22958;51.232;6.826;2022-09-28T13:17:05;13.90;99.90
37050;DHT22;22958;51.232;6.826;2022-09-28T13:22:27;13.90;99.90
37050;DHT22;22958;51.232;6.826;2022-09-28T13:24:54;14.00;99.90
37050;DHT22;22958;51.232;6.826;2022-09-28T13:27:28;13.90;99.90
37050;DHT22;22958;51.232;6.826;2022-09-28T13:29:57;14.00;99.90
37050;DHT22;22958;51.232;6.826;2022-09-28T13:32:23;14.10;99.90
37050;DHT22;22958;51.232;6.826;2022-09-28T13:34:51;14.60;99.90
37050;DHT22;22958;51.232;6.826;2022-09-28T13:37:20;16.70;99.90
37050;DHT22;22958;51.232;6.826;2022-09-28T13:39:56;19.30;99.90
37050;DHT22;22958;51.232;6.826;2022-09-28T13:42:27;21.70;99.90
37050;DHT22;22958;51.232;6.826;2022-09-28T13:45:09;20.90;99.90
37050;DHT22;22958;51.232;6.826;2022-09-28T13:50:29;23.20;99.90
37050;DHT22;22958;51.232;6.826;2022-09-28T13:53:05;22.00;99.90
37050;DHT22;22958;51.232;6.826;2022-09-28T13:55:46;21.80;99.90
37050;DHT22;22958;51.232;6.826;2022-09-28T14:01:03;22.60;99.90
37050;DHT22;22958;51.232;6.826;2022-09-28T14:06:26;21.30;99.90
37050;DHT22;22958;51.232;6.826;2022-09-28T14:16:35;21.40;99.90
37050;DHT22;22958;51.232;6.826;2022-09-28T14:21:45;19.80;99.90
37050;DHT22;22958;51.232;6.826;2022-09-28T14:24:25;17.90;99.90
37050;DHT22;22958;51.232;6.826;2022-09-28T14:27:00;16.80;99.90
37050;DHT22;22958;51.232;6.826;2022-09-28T14:29:29;16.30;99.90
37050;DHT22;22958;51.232;6.826;2022-09-28T14:32:03;16.10;99.90
37050;DHT22;22958;51.232;6.826;2022-09-28T14:34:35;17.90;99.90
37050;DHT22;22958;51.232;6.826;2022-09-28T14:37:03;20.90;99.90
37050;DHT22;22958;51.232;6.826;2022-09-28T14:39:48;22.30;99.90
37050;DHT22;22958;51.232;6.826;2022-09-28T14:42:32;23.20;99.90
37050;DHT22;22958;51.232;6.826;2022-09-28T14:50:11;21.20;99.90
37050;DHT22;22958;51.232;6.826;2022-09-28T14:52:42;20.90;99.90
37050;DHT22;22958;51.232;6.826;2022-09-28T14:55:11;21.20;99.90
37050;DHT22;22958;51.232;6.826;2022-09-28T14:57:39;20.80;99.90
37050;DHT22;22958;51.232;6.826;2022-09-28T15:00:47;18.60;99.90
37050;DHT22;22958;51.232;6.826;2022-09-28T15:02:59;19.70;99.90
37050;DHT22;22958;51.232;6.826;2022-09-28T15:05:27;21.00;99.90
37050;DHT22;22958;51.232;6.826;2022-09-28T15:07:53;18.40;99.90
37050;DHT22;22958;51.232;6.826;2022-09-28T15:10:21;17.30;99.90
37050;DHT22;22958;51.232;6.826;2022-09-28T15:12:48;16.40;99.90
37050;DHT22;22958;51.232;6.826;2022-09-28T15:15:32;15.80;99.90
37050;DHT22;22958;51.232;6.826;2022-09-28T15:18:02;15.20;99.90
37050;DHT22;22958;51.232;6.826;2022-09-28T15:20:30;14.80;99.90
37050;DHT22;22958;51.232;6.826;2022-09-28T15:22:57;14.20;99.90
37050;DHT22;22958;51.232;6.826;2022-09-28T15:25:25;13.80;99.90
37050;DHT22;22958;51.232;6.826;2022-09-28T15:27:52;13.30;99.90
37050;DHT22;22958;51.232;6.826;2022-09-28T15:30:28;13.20;99.90
37050;DHT22;22958;51.232;6.826;2022-09-28T15:32:56;13.20;99.90
37050;DHT22;22958;51.232;6.826;2022-09-28T15:35:44;13.10;99.90
37050;DHT22;22958;51.232;6.826;2022-09-28T15:38:11;12.90;99.90
37050;DHT22;22958;51.232;6.826;2022-09-28T15:40:38;12.90;99.90
37050;DHT22;22958;51.232;6.826;2022-09-28T15:45:45;12.30;99.90
37050;DHT22;22958;51.232;6.826;2022-09-28T15:48:25;12.00;99.90
37050;DHT22;22958;51.232;6.826;2022-09-28T15:51:03;11.90;99.90
37050;DHT22;22958;51.232;6.826;2022-09-28T15:53:34;11.50;99.90
37050;DHT22;22958;51.232;6.826;2022-09-28T15:56:01;11.00;99.90
37050;DHT22;22958;51.232;6.826;2022-09-28T15:58:29;10.60;99.90
37050;DHT22;22958;51.232;6.826;2022-09-28T16:01:16;10.30;99.90
37050;DHT22;22958;51.232;6.826;2022-09-28T16:03:40;10.20;99.90
37050;DHT22;22958;51.232;6.826;2022-09-28T16:06:07;9.90;99.90
37050;DHT22;22958;51.232;6.826;2022-09-28T16:08:36;9.80;99.90
37050;DHT22;22958;51.232;6.826;2022-09-28T16:13:45;9.70;99.90
37050;DHT22;22958;51.232;6.826;2022-09-28T16:16:13;9.60;99.90
37050;DHT22;22958;51.232;6.826;2022-09-28T16:18:39;9.60;99.90
37050;DHT22;22958;51.232;6.826;2022-09-28T16:21:21;9.60;99.90
37050;DHT22;22958;51.232;6.826;2022-09-28T16:23:49;9.50;99.90
37050;DHT22;22958;51.232;6.826;2022-09-28T16:26:16;9.50;99.90
37050;DHT22;22958;51.232;6.826;2022-09-28T16:28:51;9.50;99.90
37050;DHT22;22958;51.232;6.826;2022-09-28T16:31:24;9.40;99.90
37050;DHT22;22958;51.232;6.826;2022-09-28T16:33:52;9.30;99.90
37050;DHT22;22958;51.232;6.826;2022-09-28T16:36:18;9.40;99.90
37050;DHT22;22958;51.232;6.826;2022-09-28T16:38:44;9.40;99.90
37050;DHT22;22958;51.232;6.826;2022-09-28T16:41:10;9.50;99.90
37050;DHT22;22958;51.232;6.826;2022-09-28T16:43:36;9.50;99.90
37050;DHT22;22958;51.232;6.826;2022-09-28T16:48:30;9.60;99.90
37050;DHT22;22958;51.232;6.826;2022-09-28T16:50:56;9.60;99.90
37050;DHT22;22958;51.232;6.826;2022-09-28T16:53:21;9.70;99.90
37050;DHT22;22958;51.232;6.826;2022-09-28T16:56:06;9.70;99.90
37050;DHT22;22958;51.232;6.826;2022-09-28T16:58:31;9.70;99.90
37050;DHT22;22958;51.232;6.826;2022-09-28T17:00:58;9.70;99.90
37050;DHT22;22958;51.232;6.826;2022-09-28T17:03:23;9.70;99.90
37050;DHT22;22958;51.232;6.826;2022-09-28T17:05:50;9.70;99.90
37050;DHT22;22958;51.232;6.826;2022-09-28T17:08:17;9.70;99.90
37050;DHT22;22958;51.232;6.826;2022-09-28T17:13:14;9.60;99.90
37050;DHT22;22958;51.232;6.826;2022-09-28T17:15:40;9.60;99.90
37050;DHT22;22958;51.232;6.826;2022-09-28T17:18:06;9.60;99.90
37050;DHT22;22958;51.232;6.826;2022-09-28T17:20:31;9.60;99.90
37050;DHT22;22958;51.232;6.826;2022-09-28T17:22:57;9.70;99.90
37050;DHT22;22958;51.232;6.826;2022-09-28T17:25:23;9.70;99.90
37050;DHT22;22958;51.232;6.826;2022-09-28T17:27:50;9.70;99.90
37050;DHT22;22958;51.232;6.826;2022-09-28T17:30:16;9.70;99.90
37050;DHT22;22958;51.232;6.826;2022-09-28T17:32:42;9.70;99.90
37050;DHT22;22958;51.232;6.826;2022-09-28T17:35:10;9.80;99.90
37050;DHT22;22958;51.232;6.826;2022-09-28T17:37:35;9.80;99.90
37050;DHT22;22958;51.232;6.826;2022-09-28T17:40:04;9.80;99.90
37050;DHT22;22958;51.232;6.826;2022-09-28T17:42:35;9.80;99.90
37050;DHT22;22958;51.232;6.826;2022-09-28T17:45:00;9.80;99.90
37050;DHT22;22958;51.232;6.826;2022-09-28T17:47:26;9.80;99.90